sensor_id;sensor_type;location;lat;lon;timestamp;temperature;humidity
53410;DHT22;66590;50.734;4.246;2023-01-15T00:01:37;8.60;99.90
53410;DHT22;66590;50.734;4.246;2023-01-15T00:04:05;8.60;99.90
53410;DHT22;66590;50.734;4.246;2023-01-15T00:06:36;8.60;99.90
53410;DHT22;66590;50.734;4.246;2023-01-15T00:09:03;8.50;99.90
53410;DHT22;66590;50.734;4.246;2023-01-15T00:11:30;8.60;99.90
53410;DHT22;66590;50.734;4.246;2023-01-15T00:13:58;8.60;99.90
53410;DHT22;66590;50.734;4.246;2023-01-15T00:16:25;8.60;99.90
53410;DHT22;66590;50.734;4.246;2023-01-15T00:18:55;8.60;99.90
53410;DHT22;66590;50.734;4.246;2023-01-15T00:21:24;8.50;99.90
53410;DHT22;66590;50.734;4.246;2023-01-15T00:23:51;8.60;99.90
53410;DHT22;66590;50.734;4.246;2023-01-15T00:26:21;8.70;99.90
53410;DHT22;66590;50.734;4.246;2023-01-15T00:28:48;8.70;99.90
53410;DHT22;66590;50.734;4.246;2023-01-15T00:31:15;8.60;99.90
53410;DHT22;66590;50.734;4.246;2023-01-15T00:33:42;8.60;99.90
53410;DHT22;66590;50.734;4.246;2023-01-15T00:36:11;8.50;99.90
53410;DHT22;66590;50.734;4.246;2023-01-15T00:38:37;8.50;99.90
53410;DHT22;66590;50.734;4.246;2023-01-15T00:41:04;8.50;99.90
53410;DHT22;66590;50.734;4.246;2023-01-15T00:43:31;8.50;99.90
53410;DHT22;66590;50.734;4.246;2023-01-15T00:45:58;8.60;99.90
53410;DHT22;66590;50.734;4.246;2023-01-15T00:48:25;8.50;99.90
53410;DHT22;66590;50.734;4.246;2023-01-15T00:50:52;8.40;99.90
53410;DHT22;66590;50.734;4.246;2023-01-15T00:53:21;8.50;99.90
53410;DHT22;66590;50.734;4.246;2023-01-15T00:55:48;8.50;99.90
53410;DHT22;66590;50.734;4.246;2023-01-15T00:58:15;8.40;99.90
53410;DHT22;66590;50.734;4.246;2023-01-15T01:00:42;8.30;99.90
53410;DHT22;66590;50.734;4.246;2023-01-15T01:03:09;8.30;99.90
53410;DHT22;66590;50.734;4.246;2023-01-15T01:05:36;8.20;99.90
53410;DHT22;66590;50.734;4.246;2023-01-15T01:08:03;8.10;99.90
53410;DHT22;66590;50.734;4.246;2023-01-15T01:10:31;8.10;99.90
53410;DHT22;66590;50.734;4.246;2023-01-15T01:12:58;8.10;99.90
53410;DHT22;66590;50.734;4.246;2023-01-15T01:15:25;8.00;99.90
53410;DHT22;66590;50.734;4.246;2023-01-15T01:17:52;8.00;99.90
53410;DHT22;66590;50.734;4.246;2023-01-15T01:20:19;8.00;99.90
53410;DHT22;66590;50.734;4.246;2023-01-15T01:22:47;8.10;99.90
53410;DHT22;66590;50.734;4.246;2023-01-15T01:25:14;8.10;99.90
53410;DHT22;66590;50.734;4.246;2023-01-15T01:27:44;8.10;99.90
53410;DHT22;66590;50.734;4.246;2023-01-15T01:30:12;8.20;99.90
53410;DHT22;66590;50.734;4.246;2023-01-15T01:32:40;8.10;99.90
53410;DHT22;66590;50.734;4.246;2023-01-15T01:35:09;8.10;99.90
53410;DHT22;66590;50.734;4.246;2023-01-15T01:37:36;8.10;99.90
53410;DHT22;66590;50.734;4.246;2023-01-15T01:40:04;8.00;99.90
53410;DHT22;66590;50.734;4.246;2023-01-15T01:42:31;8.00;99.90
53410;DHT22;66590;50.734;4.246;2023-01-15T01:47:47;8.00;99.90
53410;DHT22;66590;50.734;4.246;2023-01-15T01:50:14;8.00;99.90
53410;DHT22;66590;50.734;4.246;2023-01-15T01:52:44;8.00;99.90
53410;DHT22;66590;50.734;4.246;2023-01-15T01:55:14;8.00;99.90
53410;DHT22;66590;50.734;4.246;2023-01-15T01:57:42;8.00;99.90
53410;DHT22;66590;50.734;4.246;2023-01-15T02:00:12;8.00;99.90
53410;DHT22;66590;50.734;4.246;2023-01-15T02:02:41;8.00;99.90
53410;DHT22;66590;50.734;4.246;2023-01-15T02:05:10;7.90;99.90
53410;DHT22;66590;50.734;4.246;2023-01-15T02:07:40;7.80;99.90
53410;DHT22;66590;50.734;4.246;2023-01-15T02:10:13;7.80;99.90
53410;DHT22;66590;50.734;4.246;2023-01-15T02:12:41;7.80;99.90
53410;DHT22;66590;50.734;4.246;2023-01-15T02:15:15;7.60;99.90
53410;DHT22;66590;50.734;4.246;2023-01-15T02:17:48;7.70;99.90
53410;DHT22;66590;50.734;4.246;2023-01-15T02:20:25;7.80;99.90
53410;DHT22;66590;50.734;4.246;2023-01-15T02:26:12;7.80;99.90
53410;DHT22;66590;50.734;4.246;2023-01-15T02:28:47;7.80;99.90
53410;DHT22;66590;50.734;4.246;2023-01-15T02:31:19;7.80;99.90
53410;DHT22;66590;50.734;4.246;2023-01-15T02:33:53;7.80;99.90
53410;DHT22;66590;50.734;4.246;2023-01-15T02:36:23;7.70;99.90
53410;DHT22;66590;50.734;4.246;2023-01-15T02:38:54;7.70;99.90
53410;DHT22;66590;50.734;4.246;2023-01-15T02:41:27;7.70;99.90
53410;DHT22;66590;50.734;4.246;2023-01-15T02:43:57;7.70;99.90
53410;DHT22;66590;50.734;4.246;2023-01-15T02:46:28;7.70;99.90
53410;DHT22;66590;50.734;4.246;2023-01-15T02:48:57;7.60;99.90
53410;DHT22;66590;50.734;4.246;2023-01-15T02:51:29;7.70;99.90
53410;DHT22;66590;50.734;4.246;2023-01-15T02:53:59;7.60;99.90
53410;DHT22;66590;50.734;4.246;2023-01-15T02:56:30;7.60;99.90
53410;DHT22;66590;50.734;4.246;2023-01-15T02:59:02;7.60;99.90
53410;DHT22;66590;50.734;4.246;2023-01-15T03:01:33;7.60;99.90
53410;DHT22;66590;50.734;4.246;2023-01-15T03:04:08;7.70;99.90
53410;DHT22;66590;50.734;4.246;2023-01-15T03:06:38;7.60;99.90
53410;DHT22;66590;50.734;4.246;2023-01-15T03:09:07;7.60;99.90
53410;DHT22;66590;50.734;4.246;2023-01-15T03:11:37;7.60;99.90
53410;DHT22;66590;50.734;4.246;2023-01-15T03:14:15;7.50;99.90
53410;DHT22;66590;50.734;4.246;2023-01-15T03:16:48;7.50;99.90
53410;DHT22;66590;50.734;4.246;2023-01-15T03:19:21;7.50;99.90
53410;DHT22;66590;50.734;4.246;2023-01-15T03:21:52;7.60;99.90
53410;DHT22;66590;50.734;4.246;2023-01-15T03:24:26;7.70;99.90
53410;DHT22;66590;50.734;4.246;2023-01-15T03:26:54;7.60;99.90
53410;DHT22;66590;50.734;4.246;2023-01-15T03:29:25;7.50;99.90
53410;DHT22;66590;50.734;4.246;2023-01-15T03:31:53;7.50;99.90
53410;DHT22;66590;50.734;4.246;2023-01-15T03:34:20;7.50;99.90
53410;DHT22;66590;50.734;4.246;2023-01-15T03:36:47;7.50;99.90
53410;DHT22;66590;50.734;4.246;2023-01-15T03:39:15;7.40;99.90
53410;DHT22;66590;50.734;4.246;2023-01-15T03:41:51;7.30;99.90
53410;DHT22;66590;50.734;4.246;2023-01-15T03:44:28;7.30;99.90
53410;DHT22;66590;50.734;4.246;2023-01-15T03:47:05;7.30;99.90
53410;DHT22;66590;50.734;4.246;2023-01-15T03:49:41;7.20;99.90
53410;DHT22;66590;50.734;4.246;2023-01-15T03:52:14;7.20;99.90
53410;DHT22;66590;50.734;4.246;2023-01-15T03:54:49;7.30;99.90
53410;DHT22;66590;50.734;4.246;2023-01-15T03:57:20;7.30;99.90
53410;DHT22;66590;50.734;4.246;2023-01-15T03:59:53;7.30;99.90
53410;DHT22;66590;50.734;4.246;2023-01-15T04:02:22;7.30;99.90
53410;DHT22;66590;50.734;4.246;2023-01-15T04:04:52;7.30;99.90
53410;DHT22;66590;50.734;4.246;2023-01-15T04:07:21;7.30;99.90
53410;DHT22;66590;50.734;4.246;2023-01-15T04:09:48;7.30;99.90
53410;DHT22;66590;50.734;4.246;2023-01-15T04:12:15;7.30;99.90
53410;DHT22;66590;50.734;4.246;2023-01-15T04:14:42;7.20;99.90
53410;DHT22;66590;50.734;4.246;2023-01-15T04:17:10;7.20;99.90
53410;DHT22;66590;50.734;4.246;2023-01-15T04:19:37;7.10;99.90
53410;DHT22;66590;50.734;4.246;2023-01-15T04:22:04;7.20;99.90
53410;DHT22;66590;50.734;4.246;2023-01-15T04:24:32;7.10;99.90
53410;DHT22;66590;50.734;4.246;2023-01-15T04:26:59;7.10;99.90
53410;DHT22;66590;50.734;4.246;2023-01-15T04:29:26;7.00;99.90
53410;DHT22;66590;50.734;4.246;2023-01-15T04:31:53;7.00;99.90
53410;DHT22;66590;50.734;4.246;2023-01-15T04:34:22;7.00;99.90
53410;DHT22;66590;50.734;4.246;2023-01-15T04:36:49;7.10;99.90
53410;DHT22;66590;50.734;4.246;2023-01-15T04:39:16;7.10;99.90
53410;DHT22;66590;50.734;4.246;2023-01-15T04:41:43;7.00;99.90
53410;DHT22;66590;50.734;4.246;2023-01-15T04:44:10;7.00;99.90
53410;DHT22;66590;50.734;4.246;2023-01-15T04:46:39;7.00;99.90
53410;DHT22;66590;50.734;4.246;2023-01-15T04:49:09;7.00;99.90
53410;DHT22;66590;50.734;4.246;2023-01-15T04:51:38;7.00;99.90
53410;DHT22;66590;50.734;4.246;2023-01-15T04:54:06;7.00;99.90
53410;DHT22;66590;50.734;4.246;2023-01-15T04:56:37;7.00;99.90
53410;DHT22;66590;50.734;4.246;2023-01-15T04:59:04;7.00;99.90
53410;DHT22;66590;50.734;4.246;2023-01-15T05:01:31;7.00;99.90
53410;DHT22;66590;50.734;4.246;2023-01-15T05:04:00;7.00;99.90
53410;DHT22;66590;50.734;4.246;2023-01-15T05:06:27;6.90;99.90
53410;DHT22;66590;50.734;4.246;2023-01-15T05:08:56;6.90;99.90
53410;DHT22;66590;50.734;4.246;2023-01-15T05:11:23;6.90;99.90
53410;DHT22;66590;50.734;4.246;2023-01-15T05:13:50;7.00;99.90
53410;DHT22;66590;50.734;4.246;2023-01-15T05:16:18;6.90;99.90
53410;DHT22;66590;50.734;4.246;2023-01-15T05:18:46;7.00;99.90
53410;DHT22;66590;50.734;4.246;2023-01-15T05:21:15;6.90;99.90
53410;DHT22;66590;50.734;4.246;2023-01-15T05:23:42;6.90;99.90
53410;DHT22;66590;50.734;4.246;2023-01-15T05:26:11;6.80;99.90
53410;DHT22;66590;50.734;4.246;2023-01-15T05:28:38;6.80;99.90
53410;DHT22;66590;50.734;4.246;2023-01-15T05:31:07;6.70;99.90
53410;DHT22;66590;50.734;4.246;2023-01-15T05:33:34;6.70;99.90
53410;DHT22;66590;50.734;4.246;2023-01-15T05:36:02;6.70;99.90
53410;DHT22;66590;50.734;4.246;2023-01-15T05:38:29;6.80;99.90
53410;DHT22;66590;50.734;4.246;2023-01-15T05:40:56;6.90;99.90
53410;DHT22;66590;50.734;4.246;2023-01-15T05:43:25;6.80;99.90
53410;DHT22;66590;50.734;4.246;2023-01-15T05:45:52;6.70;99.90
53410;DHT22;66590;50.734;4.246;2023-01-15T05:48:19;6.70;99.90
53410;DHT22;66590;50.734;4.246;2023-01-15T05:50:46;6.70;99.90
53410;DHT22;66590;50.734;4.246;2023-01-15T05:53:13;6.60;99.90
53410;DHT22;66590;50.734;4.246;2023-01-15T05:55:40;6.70;99.90
53410;DHT22;66590;50.734;4.246;2023-01-15T05:58:06;6.70;99.90
53410;DHT22;66590;50.734;4.246;2023-01-15T06:00:35;6.70;99.90
53410;DHT22;66590;50.734;4.246;2023-01-15T06:03:02;6.60;99.90
53410;DHT22;66590;50.734;4.246;2023-01-15T06:05:29;6.60;99.90
53410;DHT22;66590;50.734;4.246;2023-01-15T06:07:56;6.70;99.90
53410;DHT22;66590;50.734;4.246;2023-01-15T06:10:23;6.80;99.90
53410;DHT22;66590;50.734;4.246;2023-01-15T06:12:50;6.70;99.90
53410;DHT22;66590;50.734;4.246;2023-01-15T06:15:17;6.70;99.90
53410;DHT22;66590;50.734;4.246;2023-01-15T06:17:48;6.60;99.90
53410;DHT22;66590;50.734;4.246;2023-01-15T06:20:15;6.60;99.90
53410;DHT22;66590;50.734;4.246;2023-01-15T06:22:42;6.60;99.90
53410;DHT22;66590;50.734;4.246;2023-01-15T06:25:09;6.60;99.90
53410;DHT22;66590;50.734;4.246;2023-01-15T06:27:36;6.80;99.90
53410;DHT22;66590;50.734;4.246;2023-01-15T06:30:04;6.70;99.90
53410;DHT22;66590;50.734;4.246;2023-01-15T06:32:31;6.70;99.90
53410;DHT22;66590;50.734;4.246;2023-01-15T06:34:59;6.60;99.90
53410;DHT22;66590;50.734;4.246;2023-01-15T06:37:26;6.70;99.90
53410;DHT22;66590;50.734;4.246;2023-01-15T06:39:53;6.70;99.90
53410;DHT22;66590;50.734;4.246;2023-01-15T06:42:20;6.70;99.90
53410;DHT22;66590;50.734;4.246;2023-01-15T06:44:47;6.60;99.90
53410;DHT22;66590;50.734;4.246;2023-01-15T06:47:16;6.50;99.90
53410;DHT22;66590;50.734;4.246;2023-01-15T06:49:43;6.40;99.90
53410;DHT22;66590;50.734;4.246;2023-01-15T06:52:11;6.40;99.90
53410;DHT22;66590;50.734;4.246;2023-01-15T06:54:38;6.40;99.90
53410;DHT22;66590;50.734;4.246;2023-01-15T06:57:05;6.40;99.90
53410;DHT22;66590;50.734;4.246;2023-01-15T06:59:32;6.40;99.90
53410;DHT22;66590;50.734;4.246;2023-01-15T07:01:59;6.40;99.90
53410;DHT22;66590;50.734;4.246;2023-01-15T07:04:26;6.30;99.90
53410;DHT22;66590;50.734;4.246;2023-01-15T07:06:53;6.30;99.90
53410;DHT22;66590;50.734;4.246;2023-01-15T07:09:22;6.30;99.90
53410;DHT22;66590;50.734;4.246;2023-01-15T07:11:49;6.20;99.90
53410;DHT22;66590;50.734;4.246;2023-01-15T07:14:17;6.20;99.90
53410;DHT22;66590;50.734;4.246;2023-01-15T07:16:44;6.20;99.90
53410;DHT22;66590;50.734;4.246;2023-01-15T07:19:11;6.20;99.90
53410;DHT22;66590;50.734;4.246;2023-01-15T07:21:39;6.20;99.90
53410;DHT22;66590;50.734;4.246;2023-01-15T07:24:06;6.20;99.90
53410;DHT22;66590;50.734;4.246;2023-01-15T07:26:35;6.10;99.90
53410;DHT22;66590;50.734;4.246;2023-01-15T07:29:02;6.00;99.90
53410;DHT22;66590;50.734;4.246;2023-01-15T07:31:29;6.00;99.90
53410;DHT22;66590;50.734;4.246;2023-01-15T07:33:57;6.00;99.90
53410;DHT22;66590;50.734;4.246;2023-01-15T07:36:24;6.00;99.90
53410;DHT22;66590;50.734;4.246;2023-01-15T07:38:51;6.00;99.90
53410;DHT22;66590;50.734;4.246;2023-01-15T07:41:18;6.00;99.90
53410;DHT22;66590;50.734;4.246;2023-01-15T07:43:47;6.00;99.90
53410;DHT22;66590;50.734;4.246;2023-01-15T07:46:13;6.00;99.90
53410;DHT22;66590;50.734;4.246;2023-01-15T07:48:40;5.90;99.90
53410;DHT22;66590;50.734;4.246;2023-01-15T07:51:07;6.00;99.90
53410;DHT22;66590;50.734;4.246;2023-01-15T07:53:34;6.00;99.90
53410;DHT22;66590;50.734;4.246;2023-01-15T07:56:02;6.00;99.90
53410;DHT22;66590;50.734;4.246;2023-01-15T07:58:29;5.90;99.90
53410;DHT22;66590;50.734;4.246;2023-01-15T08:00:57;5.90;99.90
53410;DHT22;66590;50.734;4.246;2023-01-15T08:03:24;5.90;99.90
53410;DHT22;66590;50.734;4.246;2023-01-15T08:05:51;5.90;99.90
53410;DHT22;66590;50.734;4.246;2023-01-15T08:08:18;5.90;99.90
53410;DHT22;66590;50.734;4.246;2023-01-15T08:10:45;5.80;99.90
53410;DHT22;66590;50.734;4.246;2023-01-15T08:13:12;5.80;99.90
53410;DHT22;66590;50.734;4.246;2023-01-15T08:15:40;5.90;99.90
53410;DHT22;66590;50.734;4.246;2023-01-15T08:18:08;5.80;99.90
53410;DHT22;66590;50.734;4.246;2023-01-15T08:20:35;5.80;99.90
53410;DHT22;66590;50.734;4.246;2023-01-15T08:23:02;5.80;99.90
53410;DHT22;66590;50.734;4.246;2023-01-15T08:25:29;5.70;99.90
53410;DHT22;66590;50.734;4.246;2023-01-15T08:27:59;5.70;99.90
53410;DHT22;66590;50.734;4.246;2023-01-15T08:30:27;5.80;99.90
53410;DHT22;66590;50.734;4.246;2023-01-15T08:32:58;6.00;99.90
53410;DHT22;66590;50.734;4.246;2023-01-15T08:35:27;6.00;99.90
53410;DHT22;66590;50.734;4.246;2023-01-15T08:37:54;6.00;99.90
53410;DHT22;66590;50.734;4.246;2023-01-15T08:40:21;6.00;99.90
53410;DHT22;66590;50.734;4.246;2023-01-15T08:42:48;6.00;99.90
53410;DHT22;66590;50.734;4.246;2023-01-15T08:45:15;6.00;99.90
53410;DHT22;66590;50.734;4.246;2023-01-15T08:47:42;6.00;99.90
53410;DHT22;66590;50.734;4.246;2023-01-15T08:50:10;6.10;99.90
53410;DHT22;66590;50.734;4.246;2023-01-15T08:52:38;6.10;99.90
53410;DHT22;66590;50.734;4.246;2023-01-15T08:55:06;5.90;99.90
53410;DHT22;66590;50.734;4.246;2023-01-15T08:57:33;5.90;99.90
53410;DHT22;66590;50.734;4.246;2023-01-15T09:00:01;6.00;99.90
53410;DHT22;66590;50.734;4.246;2023-01-15T09:02:28;6.00;99.90
53410;DHT22;66590;50.734;4.246;2023-01-15T09:04:55;6.00;99.90
53410;DHT22;66590;50.734;4.246;2023-01-15T09:07:22;6.00;99.90
53410;DHT22;66590;50.734;4.246;2023-01-15T09:09:50;5.90;99.90
53410;DHT22;66590;50.734;4.246;2023-01-15T09:12:17;5.90;99.90
53410;DHT22;66590;50.734;4.246;2023-01-15T09:14:44;5.90;99.90
53410;DHT22;66590;50.734;4.246;2023-01-15T09:17:28;6.00;99.90
53410;DHT22;66590;50.734;4.246;2023-01-15T09:19:55;5.90;99.90
53410;DHT22;66590;50.734;4.246;2023-01-15T09:22:22;5.90;99.90
53410;DHT22;66590;50.734;4.246;2023-01-15T09:24:50;6.00;99.90
53410;DHT22;66590;50.734;4.246;2023-01-15T09:27:17;6.00;99.90
53410;DHT22;66590;50.734;4.246;2023-01-15T09:29:44;6.10;99.90
53410;DHT22;66590;50.734;4.246;2023-01-15T09:32:11;6.10;99.90
53410;DHT22;66590;50.734;4.246;2023-01-15T09:34:38;6.10;99.90
53410;DHT22;66590;50.734;4.246;2023-01-15T09:37:05;6.10;99.90
53410;DHT22;66590;50.734;4.246;2023-01-15T09:39:32;6.10;99.90
53410;DHT22;66590;50.734;4.246;2023-01-15T09:42:12;6.10;99.90
53410;DHT22;66590;50.734;4.246;2023-01-15T09:45:00;6.00;99.90
53410;DHT22;66590;50.734;4.246;2023-01-15T09:47:32;6.10;99.90
53410;DHT22;66590;50.734;4.246;2023-01-15T09:50:16;6.10;99.90
53410;DHT22;66590;50.734;4.246;2023-01-15T09:52:57;6.10;99.90
53410;DHT22;66590;50.734;4.246;2023-01-15T09:55:27;6.10;99.90
53410;DHT22;66590;50.734;4.246;2023-01-15T09:58:01;6.20;99.90
53410;DHT22;66590;50.734;4.246;2023-01-15T10:00:34;6.10;99.90
53410;DHT22;66590;50.734;4.246;2023-01-15T10:03:06;6.10;99.90
53410;DHT22;66590;50.734;4.246;2023-01-15T10:05:37;6.00;99.90
53410;DHT22;66590;50.734;4.246;2023-01-15T10:08:13;6.10;99.90
53410;DHT22;66590;50.734;4.246;2023-01-15T10:10:45;6.00;99.90
53410;DHT22;66590;50.734;4.246;2023-01-15T10:13:20;6.10;99.90
53410;DHT22;66590;50.734;4.246;2023-01-15T10:15:52;6.00;99.90
53410;DHT22;66590;50.734;4.246;2023-01-15T10:18:25;6.10;99.90
53410;DHT22;66590;50.734;4.246;2023-01-15T10:21:24;6.00;99.90
53410;DHT22;66590;50.734;4.246;2023-01-15T10:24:00;6.10;99.90
53410;DHT22;66590;50.734;4.246;2023-01-15T10:26:32;6.10;99.90
53410;DHT22;66590;50.734;4.246;2023-01-15T10:29:08;5.90;99.90
53410;DHT22;66590;50.734;4.246;2023-01-15T10:31:57;5.80;99.90
53410;DHT22;66590;50.734;4.246;2023-01-15T10:37:26;5.90;99.90
53410;DHT22;66590;50.734;4.246;2023-01-15T10:40:08;6.00;99.90
53410;DHT22;66590;50.734;4.246;2023-01-15T10:42:43;6.00;99.90
53410;DHT22;66590;50.734;4.246;2023-01-15T10:45:17;6.10;99.90
53410;DHT22;66590;50.734;4.246;2023-01-15T10:47:48;6.30;99.90
53410;DHT22;66590;50.734;4.246;2023-01-15T10:50:19;6.30;99.90
53410;DHT22;66590;50.734;4.246;2023-01-15T10:52:48;6.40;99.90
53410;DHT22;66590;50.734;4.246;2023-01-15T10:55:20;6.60;99.90
53410;DHT22;66590;50.734;4.246;2023-01-15T10:57:54;6.60;99.90
53410;DHT22;66590;50.734;4.246;2023-01-15T11:00:38;6.60;99.90
53410;DHT22;66590;50.734;4.246;2023-01-15T11:03:09;6.70;99.90
53410;DHT22;66590;50.734;4.246;2023-01-15T11:05:38;6.70;99.90
53410;DHT22;66590;50.734;4.246;2023-01-15T11:08:11;6.90;99.90
53410;DHT22;66590;50.734;4.246;2023-01-15T11:11:12;7.00;99.90
53410;DHT22;66590;50.734;4.246;2023-01-15T11:13:51;7.10;99.90
53410;DHT22;66590;50.734;4.246;2023-01-15T11:16:23;7.10;99.90
53410;DHT22;66590;50.734;4.246;2023-01-15T11:18:50;7.10;99.90
53410;DHT22;66590;50.734;4.246;2023-01-15T11:21:21;7.00;99.90
53410;DHT22;66590;50.734;4.246;2023-01-15T11:23:49;7.00;99.90
53410;DHT22;66590;50.734;4.246;2023-01-15T11:26:20;7.00;99.90
53410;DHT22;66590;50.734;4.246;2023-01-15T11:28:48;7.00;99.90
53410;DHT22;66590;50.734;4.246;2023-01-15T11:31:16;7.00;99.90
53410;DHT22;66590;50.734;4.246;2023-01-15T11:33:54;7.00;99.90
53410;DHT22;66590;50.734;4.246;2023-01-15T11:36:24;7.10;99.90
53410;DHT22;66590;50.734;4.246;2023-01-15T11:38:52;7.20;99.90
53410;DHT22;66590;50.734;4.246;2023-01-15T11:41:28;7.20;99.90
53410;DHT22;66590;50.734;4.246;2023-01-15T11:43:56;7.20;99.90
53410;DHT22;66590;50.734;4.246;2023-01-15T11:46:26;7.30;99.90
53410;DHT22;66590;50.734;4.246;2023-01-15T11:48:54;7.20;99.90
53410;DHT22;66590;50.734;4.246;2023-01-15T11:51:22;7.30;99.90
53410;DHT22;66590;50.734;4.246;2023-01-15T11:53:54;7.30;99.90
53410;DHT22;66590;50.734;4.246;2023-01-15T11:56:26;7.40;99.90
53410;DHT22;66590;50.734;4.246;2023-01-15T11:58:56;7.40;99.90
53410;DHT22;66590;50.734;4.246;2023-01-15T12:01:25;7.40;99.90
53410;DHT22;66590;50.734;4.246;2023-01-15T12:03:52;7.30;99.90
53410;DHT22;66590;50.734;4.246;2023-01-15T12:06:22;7.40;99.90
53410;DHT22;66590;50.734;4.246;2023-01-15T12:08:54;7.50;99.90
53410;DHT22;66590;50.734;4.246;2023-01-15T12:11:44;7.40;99.90
53410;DHT22;66590;50.734;4.246;2023-01-15T12:14:40;7.40;99.90
53410;DHT22;66590;50.734;4.246;2023-01-15T12:17:28;7.50;99.90
53410;DHT22;66590;50.734;4.246;2023-01-15T12:20:05;7.60;99.90
53410;DHT22;66590;50.734;4.246;2023-01-15T12:22:49;7.50;99.90
53410;DHT22;66590;50.734;4.246;2023-01-15T12:25:27;7.40;99.90
53410;DHT22;66590;50.734;4.246;2023-01-15T12:28:01;7.50;99.90
53410;DHT22;66590;50.734;4.246;2023-01-15T12:30:37;7.40;99.90
53410;DHT22;66590;50.734;4.246;2023-01-15T12:33:35;7.50;99.90
53410;DHT22;66590;50.734;4.246;2023-01-15T12:36:09;7.40;99.90
53410;DHT22;66590;50.734;4.246;2023-01-15T12:38:47;7.40;99.90
53410;DHT22;66590;50.734;4.246;2023-01-15T12:41:18;7.50;99.90
53410;DHT22;66590;50.734;4.246;2023-01-15T12:43:50;7.40;99.90
53410;DHT22;66590;50.734;4.246;2023-01-15T12:46:24;7.40;99.90
53410;DHT22;66590;50.734;4.246;2023-01-15T12:48:56;7.50;99.90
53410;DHT22;66590;50.734;4.246;2023-01-15T12:51:28;7.50;99.90
53410;DHT22;66590;50.734;4.246;2023-01-15T12:54:02;7.50;99.90
53410;DHT22;66590;50.734;4.246;2023-01-15T12:56:38;7.60;99.90
53410;DHT22;66590;50.734;4.246;2023-01-15T12:59:15;7.50;99.90
53410;DHT22;66590;50.734;4.246;2023-01-15T13:01:49;7.60;99.90
53410;DHT22;66590;50.734;4.246;2023-01-15T13:04:23;7.50;99.90
53410;DHT22;66590;50.734;4.246;2023-01-15T13:06:57;7.40;99.90
53410;DHT22;66590;50.734;4.246;2023-01-15T13:09:35;7.40;99.90
53410;DHT22;66590;50.734;4.246;2023-01-15T13:12:10;7.40;99.90
53410;DHT22;66590;50.734;4.246;2023-01-15T13:14:38;7.40;99.90
53410;DHT22;66590;50.734;4.246;2023-01-15T13:17:12;7.30;99.90
53410;DHT22;66590;50.734;4.246;2023-01-15T13:19:47;7.30;99.90
53410;DHT22;66590;50.734;4.246;2023-01-15T13:22:22;7.40;99.90
53410;DHT22;66590;50.734;4.246;2023-01-15T13:24:59;7.40;99.90
53410;DHT22;66590;50.734;4.246;2023-01-15T13:27:37;7.40;99.90
53410;DHT22;66590;50.734;4.246;2023-01-15T13:30:20;7.50;99.90
53410;DHT22;66590;50.734;4.246;2023-01-15T13:32:52;7.40;99.90
53410;DHT22;66590;50.734;4.246;2023-01-15T13:35:27;7.30;99.90
53410;DHT22;66590;50.734;4.246;2023-01-15T13:37:57;7.20;99.90
53410;DHT22;66590;50.734;4.246;2023-01-15T13:40:29;7.20;99.90
53410;DHT22;66590;50.734;4.246;2023-01-15T13:42:57;7.10;99.90
53410;DHT22;66590;50.734;4.246;2023-01-15T13:45:33;7.00;99.90
53410;DHT22;66590;50.734;4.246;2023-01-15T13:48:04;7.00;99.90
53410;DHT22;66590;50.734;4.246;2023-01-15T13:50:34;7.00;99.90
53410;DHT22;66590;50.734;4.246;2023-01-15T13:53:05;7.00;99.90
53410;DHT22;66590;50.734;4.246;2023-01-15T13:55:37;6.90;99.90
53410;DHT22;66590;50.734;4.246;2023-01-15T13:58:20;7.00;99.90
53410;DHT22;66590;50.734;4.246;2023-01-15T14:00:48;6.90;99.90
53410;DHT22;66590;50.734;4.246;2023-01-15T14:03:27;6.90;99.90
53410;DHT22;66590;50.734;4.246;2023-01-15T14:05:55;6.90;99.90
53410;DHT22;66590;50.734;4.246;2023-01-15T14:08:26;6.90;99.90
53410;DHT22;66590;50.734;4.246;2023-01-15T14:10:54;6.90;99.90
53410;DHT22;66590;50.734;4.246;2023-01-15T14:16:31;7.00;99.90
53410;DHT22;66590;50.734;4.246;2023-01-15T14:22:23;7.00;99.90
53410;DHT22;66590;50.734;4.246;2023-01-15T14:25:12;7.10;99.90
53410;DHT22;66590;50.734;4.246;2023-01-15T14:27:52;7.00;99.90
53410;DHT22;66590;50.734;4.246;2023-01-15T14:30:41;7.00;99.90
53410;DHT22;66590;50.734;4.246;2023-01-15T14:33:22;6.90;99.90
53410;DHT22;66590;50.734;4.246;2023-01-15T14:35:53;6.70;99.90
53410;DHT22;66590;50.734;4.246;2023-01-15T14:38:26;6.70;99.90
53410;DHT22;66590;50.734;4.246;2023-01-15T14:41:01;6.70;99.90
53410;DHT22;66590;50.734;4.246;2023-01-15T14:43:32;6.60;99.90
53410;DHT22;66590;50.734;4.246;2023-01-15T14:46:12;6.60;99.90
53410;DHT22;66590;50.734;4.246;2023-01-15T14:48:40;6.70;99.90
53410;DHT22;66590;50.734;4.246;2023-01-15T14:51:09;6.70;99.90
53410;DHT22;66590;50.734;4.246;2023-01-15T14:53:40;6.70;99.90
53410;DHT22;66590;50.734;4.246;2023-01-15T14:56:17;6.80;99.90
53410;DHT22;66590;50.734;4.246;2023-01-15T14:58:52;6.80;99.90
53410;DHT22;66590;50.734;4.246;2023-01-15T15:01:42;6.80;99.90
53410;DHT22;66590;50.734;4.246;2023-01-15T15:04:20;6.70;99.90
53410;DHT22;66590;50.734;4.246;2023-01-15T15:06:51;6.80;99.90
53410;DHT22;66590;50.734;4.246;2023-01-15T15:09:28;6.80;99.90
53410;DHT22;66590;50.734;4.246;2023-01-15T15:12:12;6.80;99.90
53410;DHT22;66590;50.734;4.246;2023-01-15T15:14:43;6.80;99.90
53410;DHT22;66590;50.734;4.246;2023-01-15T15:17:19;6.70;99.90
53410;DHT22;66590;50.734;4.246;2023-01-15T15:19:56;6.60;99.90
53410;DHT22;66590;50.734;4.246;2023-01-15T15:22:29;6.60;99.90
53410;DHT22;66590;50.734;4.246;2023-01-15T15:25:05;6.70;99.90
53410;DHT22;66590;50.734;4.246;2023-01-15T15:27:34;6.70;99.90
53410;DHT22;66590;50.734;4.246;2023-01-15T15:30:05;6.70;99.90
53410;DHT22;66590;50.734;4.246;2023-01-15T15:32:33;6.70;99.90
53410;DHT22;66590;50.734;4.246;2023-01-15T15:35:01;6.70;99.90
53410;DHT22;66590;50.734;4.246;2023-01-15T15:37:32;6.70;99.90
53410;DHT22;66590;50.734;4.246;2023-01-15T15:40:09;6.70;99.90
53410;DHT22;66590;50.734;4.246;2023-01-15T15:42:44;6.70;99.90
53410;DHT22;66590;50.734;4.246;2023-01-15T15:45:18;6.60;99.90
53410;DHT22;66590;50.734;4.246;2023-01-15T15:47:45;6.60;99.90
53410;DHT22;66590;50.734;4.246;2023-01-15T15:50:20;6.60;99.90
53410;DHT22;66590;50.734;4.246;2023-01-15T15:52:48;6.70;99.90
53410;DHT22;66590;50.734;4.246;2023-01-15T15:55:17;6.70;99.90
53410;DHT22;66590;50.734;4.246;2023-01-15T15:57:45;6.60;99.90
53410;DHT22;66590;50.734;4.246;2023-01-15T16:00:18;6.50;99.90
53410;DHT22;66590;50.734;4.246;2023-01-15T16:02:46;6.40;99.90
53410;DHT22;66590;50.734;4.246;2023-01-15T16:05:22;6.40;99.90
53410;DHT22;66590;50.734;4.246;2023-01-15T16:07:50;6.40;99.90
53410;DHT22;66590;50.734;4.246;2023-01-15T16:10:19;6.40;99.90
53410;DHT22;66590;50.734;4.246;2023-01-15T16:12:52;6.30;99.90
53410;DHT22;66590;50.734;4.246;2023-01-15T16:15:24;6.30;99.90
53410;DHT22;66590;50.734;4.246;2023-01-15T16:17:52;6.20;99.90
53410;DHT22;66590;50.734;4.246;2023-01-15T16:20:20;6.30;99.90
53410;DHT22;66590;50.734;4.246;2023-01-15T16:22:52;6.30;99.90